createdAt,value
2022-09-11T00:00:54.535Z,1.23
2022-09-11T00:03:23.898Z,1.10
2022-09-11T00:05:51.627Z,1.48
2022-09-11T00:08:20.101Z,1.00
2022-09-11T00:10:47.530Z,1.42
2022-09-11T00:13:16.506Z,1.33
2022-09-11T00:15:45.024Z,1.60
2022-09-11T00:18:13.672Z,1.70
2022-09-11T00:20:40.549Z,1.60
2022-09-11T00:23:07.031Z,1.20
2022-09-11T00:25:37.329Z,2.33
2022-09-11T00:28:03.829Z,1.90
2022-09-11T00:30:30.315Z,1.92
2022-09-11T00:32:56.829Z,2.78
2022-09-11T00:35:23.347Z,2.45
2022-09-11T00:37:50.524Z,2.42
2022-09-11T00:40:18.453Z,1.70
2022-09-11T00:42:44.946Z,1.75
2022-09-11T00:45:24.111Z,1.73
2022-09-11T00:47:53.343Z,1.65
2022-09-11T00:50:23.571Z,1.25
2022-09-11T00:52:58.126Z,1.48
2022-09-11T00:55:27.734Z,1.30
2022-09-11T00:58:04.274Z,1.52
2022-09-11T01:00:30.867Z,1.52
2022-09-11T01:02:57.941Z,1.23
2022-09-11T01:05:27.943Z,1.50
2022-09-11T01:07:56.565Z,1.10
2022-09-11T01:10:34.135Z,1.30
2022-09-11T01:13:15.162Z,1.30
2022-09-11T01:15:57.582Z,1.10
2022-09-11T01:18:33.785Z,1.38
2022-09-11T01:21:37.741Z,0.95
2022-09-11T01:24:25.870Z,1.02
2022-09-11T01:27:04.230Z,1.65
2022-09-11T01:29:45.177Z,2.20
2022-09-11T01:32:31.837Z,2.25
2022-09-11T01:35:06.297Z,2.28
2022-09-11T01:37:42.858Z,2.42
2022-09-11T01:40:33.900Z,1.98
2022-09-11T01:43:04.986Z,2.22
2022-09-11T01:45:34.019Z,2.47
2022-09-11T01:48:00.656Z,2.35
2022-09-11T01:50:30.580Z,2.15
2022-09-11T01:53:03.419Z,1.88
2022-09-11T01:55:34.630Z,2.00
2022-09-11T01:58:11.602Z,2.30
2022-09-11T02:00:40.218Z,2.13
2022-09-11T02:03:29.962Z,1.50
2022-09-11T02:06:00.652Z,1.88
2022-09-11T02:08:56.648Z,2.40
2022-09-11T02:11:23.294Z,2.13
2022-09-11T02:13:59.867Z,1.98
2022-09-11T02:16:38.462Z,2.25
2022-09-11T02:19:09.015Z,2.70
2022-09-11T02:21:36.948Z,2.88
2022-09-11T02:24:04.548Z,3.22
2022-09-11T02:26:36.073Z,2.38
2022-09-11T02:29:02.638Z,3.10
2022-09-11T02:31:29.233Z,3.35
2022-09-11T02:33:55.748Z,3.50
2022-09-11T02:36:43.391Z,3.53
2022-09-11T02:39:22.114Z,3.50
2022-09-11T02:42:22.601Z,3.80
2022-09-11T02:45:30.314Z,3.28
2022-09-11T02:48:34.012Z,3.05
2022-09-11T02:51:34.860Z,3.65
2022-09-11T02:54:14.162Z,3.05
2022-09-11T02:56:48.704Z,3.15
2022-09-11T02:59:54.336Z,2.58
2022-09-11T03:02:20.855Z,2.97
2022-09-11T03:04:47.649Z,2.75
2022-09-11T03:07:14.270Z,3.00
2022-09-11T03:09:40.898Z,2.03
2022-09-11T03:12:07.515Z,2.13
2022-09-11T03:14:34.055Z,2.58
2022-09-11T03:17:00.554Z,2.42
2022-09-11T03:19:27.058Z,2.10
2022-09-11T03:21:53.626Z,1.80
2022-09-11T03:24:20.113Z,1.77
2022-09-11T03:26:46.635Z,1.50
2022-09-11T03:29:13.143Z,1.67
2022-09-11T03:31:39.852Z,2.10
2022-09-11T03:34:06.712Z,2.00
2022-09-11T03:36:33.277Z,1.83
2022-09-11T03:39:00.479Z,2.33
2022-09-11T03:41:26.975Z,1.48
2022-09-11T03:43:53.471Z,1.42
2022-09-11T03:46:19.982Z,1.40
2022-09-11T03:48:46.457Z,1.50
2022-09-11T03:51:14.176Z,1.40
2022-09-11T03:53:41.900Z,1.23
2022-09-11T03:56:08.486Z,1.30
2022-09-11T03:58:34.977Z,1.40
2022-09-11T04:01:01.544Z,1.20
2022-09-11T04:03:28.042Z,1.80
2022-09-11T04:06:00.639Z,1.45
2022-09-11T04:08:27.501Z,1.60
2022-09-11T04:10:58.509Z,1.80
2022-09-11T04:13:29.523Z,1.63
2022-09-11T04:16:07.912Z,2.03
2022-09-11T04:18:36.987Z,1.60
2022-09-11T04:21:08.131Z,1.92
2022-09-11T04:23:34.627Z,1.70
2022-09-11T04:26:01.192Z,1.85
2022-09-11T04:28:28.721Z,1.30
2022-09-11T04:30:55.702Z,1.38
2022-09-11T04:33:22.202Z,1.38
2022-09-11T04:35:48.709Z,1.90
2022-09-11T04:38:15.206Z,1.88
2022-09-11T04:40:41.699Z,1.67
2022-09-11T04:43:08.219Z,1.70
2022-09-11T04:45:34.730Z,1.60
2022-09-11T04:48:01.331Z,1.60
2022-09-11T04:50:28.340Z,1.40
2022-09-11T04:52:55.079Z,1.50
2022-09-11T04:55:21.598Z,1.30
2022-09-11T04:57:48.136Z,1.00
2022-09-11T05:00:15.314Z,1.30
2022-09-11T05:02:41.832Z,1.33
2022-09-11T05:05:09.343Z,1.00
2022-09-11T05:07:36.236Z,1.40
2022-09-11T05:10:02.728Z,1.20
2022-09-11T05:12:30.273Z,1.38
2022-09-11T05:14:56.790Z,1.17
2022-09-11T05:17:23.441Z,1.02
2022-09-11T05:19:49.938Z,1.15
2022-09-11T05:22:16.426Z,1.10
2022-09-11T05:24:42.963Z,1.20
2022-09-11T05:27:09.565Z,1.13
2022-09-11T05:29:36.116Z,1.00
2022-09-11T05:32:02.777Z,1.10
2022-09-11T05:34:29.547Z,1.20
2022-09-11T05:36:57.279Z,1.40
2022-09-11T05:39:24.742Z,1.02
2022-09-11T05:41:52.048Z,1.20
2022-09-11T05:44:19.125Z,1.60
2022-09-11T05:46:45.799Z,1.10
2022-09-11T05:49:12.610Z,1.10
2022-09-11T05:51:39.106Z,1.10
2022-09-11T05:54:05.893Z,1.25
2022-09-11T05:56:32.377Z,1.67
2022-09-11T05:58:58.891Z,1.20
2022-09-11T06:01:27.466Z,1.67
2022-09-11T06:03:54.716Z,1.50
2022-09-11T06:06:22.801Z,1.45
2022-09-11T06:08:49.703Z,1.17
2022-09-11T06:11:17.929Z,1.40
2022-09-11T06:13:45.943Z,1.50
2022-09-11T06:16:18.390Z,1.33
2022-09-11T06:18:46.487Z,1.10
2022-09-11T06:21:13.465Z,1.10
2022-09-11T06:23:40.224Z,1.23
2022-09-11T06:26:09.126Z,1.10
2022-09-11T06:28:36.313Z,1.10
2022-09-11T06:31:04.384Z,1.20
2022-09-11T06:33:41.043Z,1.05
2022-09-11T06:36:10.778Z,0.73
2022-09-11T06:38:38.561Z,0.88
2022-09-11T06:41:07.707Z,1.20
2022-09-11T06:43:34.313Z,1.10
2022-09-11T06:46:08.552Z,0.80
2022-09-11T06:48:35.055Z,0.90
2022-09-11T06:51:05.915Z,0.70
2022-09-11T06:53:32.614Z,1.00
2022-09-11T06:56:03.553Z,0.68
2022-09-11T06:58:30.642Z,0.80
2022-09-11T07:01:05.558Z,0.60
2022-09-11T07:03:32.672Z,0.60
2022-09-11T07:06:00.052Z,0.70
2022-09-11T07:08:27.477Z,0.80
2022-09-11T07:10:54.311Z,0.65
2022-09-11T07:13:21.398Z,0.50
2022-09-11T07:15:47.895Z,0.82
2022-09-11T07:18:14.379Z,0.70
2022-09-11T07:20:41.115Z,0.90
2022-09-11T07:23:08.828Z,0.80
2022-09-11T07:25:36.447Z,0.80
2022-09-11T07:28:02.924Z,1.08
2022-09-11T07:30:29.436Z,0.73
2022-09-11T07:32:55.942Z,0.45
2022-09-11T07:35:22.464Z,0.75
2022-09-11T07:37:50.878Z,0.63
2022-09-11T07:40:17.780Z,0.73
2022-09-11T07:42:44.464Z,0.80
2022-09-11T07:45:11.089Z,0.73
2022-09-11T07:47:37.905Z,0.60
2022-09-11T07:50:04.742Z,0.63
2022-09-11T07:52:31.222Z,0.85
2022-09-11T07:54:57.779Z,0.70
2022-09-11T07:57:24.283Z,0.70
2022-09-11T07:59:50.816Z,0.75
2022-09-11T08:02:17.435Z,0.60
2022-09-11T08:04:44.351Z,0.60
2022-09-11T08:07:10.964Z,0.60
2022-09-11T08:09:37.449Z,0.50
2022-09-11T08:12:04.202Z,0.57
2022-09-11T08:14:30.710Z,0.40
2022-09-11T08:16:58.644Z,0.70
2022-09-11T08:19:25.122Z,0.60
2022-09-11T08:21:51.750Z,0.38
2022-09-11T08:24:18.738Z,0.57
2022-09-11T08:26:48.785Z,0.47
2022-09-11T08:29:15.817Z,0.63
2022-09-11T08:31:42.362Z,0.40
2022-09-11T08:34:10.081Z,0.60
2022-09-11T08:36:36.946Z,0.40
2022-09-11T08:39:04.035Z,0.43
2022-09-11T08:41:45.984Z,0.40
2022-09-11T08:44:21.416Z,0.43
2022-09-11T08:46:59.386Z,0.40
2022-09-11T08:49:36.534Z,0.40
2022-09-11T08:52:04.290Z,0.50
2022-09-11T08:54:34.119Z,0.60
2022-09-11T08:57:26.972Z,0.68
2022-09-11T09:00:13.747Z,0.40
2022-09-11T09:02:45.835Z,0.52
2022-09-11T09:05:46.468Z,0.50
2022-09-11T09:08:24.869Z,0.35
2022-09-11T09:11:18.230Z,0.60
2022-09-11T09:14:11.563Z,0.50
2022-09-11T09:17:02.252Z,0.60
2022-09-11T09:19:35.066Z,0.60
2022-09-11T09:22:23.449Z,0.40
2022-09-11T09:24:54.596Z,0.60
2022-09-11T09:27:26.296Z,0.60
2022-09-11T09:29:55.079Z,0.60
2022-09-11T09:32:30.975Z,0.57
2022-09-11T09:35:02.300Z,0.50
2022-09-11T09:37:28.904Z,0.20
2022-09-11T09:39:55.703Z,0.30
2022-09-11T09:42:34.502Z,0.50
2022-09-11T09:45:18.437Z,0.30
2022-09-11T09:47:45.259Z,0.43
2022-09-11T09:50:25.557Z,0.47
2022-09-11T09:53:02.307Z,0.50
2022-09-11T09:55:29.403Z,0.40
2022-09-11T09:57:55.892Z,0.50
2022-09-11T10:00:22.386Z,0.50
2022-09-11T10:02:51.379Z,0.30
2022-09-11T10:05:28.599Z,0.57
2022-09-11T10:08:01.368Z,0.40
2022-09-11T10:10:38.842Z,0.50
2022-09-11T10:13:19.595Z,0.40
2022-09-11T10:15:49.519Z,0.50
2022-09-11T10:18:41.816Z,0.30
2022-09-11T10:21:11.430Z,0.30
2022-09-11T10:23:53.270Z,0.40
2022-09-11T10:26:37.132Z,0.32
2022-09-11T10:29:20.156Z,0.30
2022-09-11T10:31:59.875Z,0.57
2022-09-11T10:34:27.891Z,0.57
2022-09-11T10:37:07.831Z,0.30
2022-09-11T10:39:36.911Z,0.30
2022-09-11T10:42:22.186Z,0.40
2022-09-11T10:44:51.486Z,0.35
2022-09-11T10:47:20.783Z,0.50
2022-09-11T10:49:47.633Z,0.50
2022-09-11T10:52:14.066Z,0.82
2022-09-11T10:54:55.812Z,0.50
2022-09-11T10:57:37.535Z,0.30
2022-09-11T11:00:18.937Z,0.45
2022-09-11T11:03:11.281Z,0.50
2022-09-11T11:05:56.721Z,0.57
2022-09-11T11:08:44.797Z,0.65
2022-09-11T11:11:30.087Z,0.40
2022-09-11T11:14:27.748Z,0.85
2022-09-11T11:17:09.934Z,0.60
2022-09-11T11:19:57.382Z,0.73
2022-09-11T11:22:54.839Z,0.50
2022-09-11T11:25:59.875Z,0.50
2022-09-11T11:29:04.513Z,0.60
2022-09-11T11:31:48.586Z,0.60
2022-09-11T11:34:28.450Z,0.52
2022-09-11T11:37:00.850Z,0.50
2022-09-11T11:39:36.265Z,0.80
2022-09-11T11:42:14.707Z,0.80
2022-09-11T11:44:49.535Z,0.90
2022-09-11T11:47:18.377Z,0.52
2022-09-11T11:49:59.794Z,0.55
2022-09-11T11:52:32.242Z,0.85
2022-09-11T11:55:16.368Z,0.50
2022-09-11T11:57:54.180Z,0.80
2022-09-11T12:00:20.981Z,0.60
2022-09-11T12:03:28.198Z,0.70
2022-09-11T12:05:54.742Z,0.65
2022-09-11T12:08:21.378Z,0.90
2022-09-11T12:10:56.226Z,0.47
2022-09-11T12:13:29.629Z,0.55
2022-09-11T12:16:17.322Z,0.90
2022-09-11T12:19:05.728Z,0.63
2022-09-11T12:21:32.166Z,0.55
2022-09-11T12:23:58.626Z,0.60
2022-09-11T12:26:26.739Z,0.60
2022-09-11T12:29:11.155Z,0.90
2022-09-11T12:31:49.938Z,0.57
2022-09-11T12:34:23.181Z,0.75
2022-09-11T12:37:01.819Z,0.80
2022-09-11T12:39:34.523Z,0.82
2022-09-11T12:42:22.806Z,0.70
2022-09-11T12:44:49.256Z,0.80
2022-09-11T12:47:22.131Z,0.65
2022-09-11T12:50:02.032Z,0.68
2022-09-11T12:52:36.554Z,0.80
2022-09-11T12:55:20.578Z,0.90
2022-09-11T12:57:47.199Z,0.95
2022-09-11T13:00:23.490Z,0.77
2022-09-11T13:02:57.664Z,0.70
2022-09-11T13:05:34.757Z,0.90
2022-09-11T13:08:17.062Z,1.02
2022-09-11T13:10:44.228Z,0.90
2022-09-11T13:13:35.670Z,0.70
2022-09-11T13:16:25.208Z,0.60
2022-09-11T13:18:58.234Z,0.77
2022-09-11T13:21:26.646Z,0.80
2022-09-11T13:23:53.503Z,0.70
2022-09-11T13:26:28.823Z,0.80
2022-09-11T13:28:58.247Z,0.88
2022-09-11T13:31:32.634Z,0.57
2022-09-11T13:34:00.592Z,0.75
2022-09-11T13:36:27.915Z,0.95
2022-09-11T13:39:00.019Z,0.98
2022-09-11T13:41:30.624Z,1.10
2022-09-11T13:43:59.846Z,0.80
2022-09-11T13:46:29.232Z,0.95
2022-09-11T13:49:09.807Z,1.08
2022-09-11T13:51:42.949Z,0.98
2022-09-11T13:54:15.726Z,0.85
2022-09-11T13:57:04.086Z,0.52
2022-09-11T13:59:37.961Z,0.90
2022-09-11T14:02:37.730Z,0.80
2022-09-11T14:05:09.991Z,0.90
2022-09-11T14:08:02.540Z,0.80
2022-09-11T14:10:30.771Z,0.87
2022-09-11T14:13:09.273Z,1.00
2022-09-11T14:15:52.490Z,0.98
2022-09-11T14:20:55.997Z,1.05
2022-09-11T14:23:27.874Z,1.10
2022-09-11T14:26:12.399Z,1.00
2022-09-11T14:28:58.120Z,0.95
2022-09-11T14:31:38.461Z,0.77
2022-09-11T14:34:18.453Z,0.70
2022-09-11T14:36:49.676Z,0.90
2022-09-11T14:39:37.677Z,1.10
2022-09-11T14:42:07.707Z,1.63
2022-09-11T14:44:36.394Z,1.20
2022-09-11T14:47:02.910Z,0.95
2022-09-11T14:49:29.411Z,1.00
2022-09-11T14:51:58.364Z,1.02
2022-09-11T14:54:27.285Z,1.13
2022-09-11T14:56:53.796Z,1.23
2022-09-11T14:59:20.297Z,0.80
2022-09-11T15:01:47.533Z,0.90
2022-09-11T15:04:19.566Z,1.10
2022-09-11T15:06:50.573Z,1.20
2022-09-11T15:09:17.070Z,1.10
2022-09-11T15:11:44.081Z,1.00
2022-09-11T15:14:20.761Z,0.82
2022-09-11T15:16:50.127Z,1.00
2022-09-11T15:19:16.635Z,1.15
2022-09-11T15:21:43.129Z,1.25
2022-09-11T15:24:09.655Z,0.98
2022-09-11T15:26:36.181Z,0.90
2022-09-11T15:29:03.677Z,1.02
2022-09-11T15:31:30.210Z,1.00
2022-09-11T15:33:56.776Z,0.90
2022-09-11T15:36:23.298Z,1.20
2022-09-11T15:38:54.294Z,1.02
2022-09-11T15:41:21.546Z,1.13
2022-09-11T15:43:48.857Z,0.90
2022-09-11T15:46:20.311Z,0.80
2022-09-11T15:48:47.258Z,0.73
2022-09-11T15:51:15.974Z,1.00
2022-09-11T15:53:42.602Z,0.95
2022-09-11T15:56:11.391Z,1.00
2022-09-11T15:58:39.222Z,1.00
2022-09-11T16:01:06.625Z,1.20
2022-09-11T16:03:33.830Z,1.77
2022-09-11T16:06:00.388Z,0.80
2022-09-11T16:08:27.908Z,0.90
2022-09-11T16:10:54.407Z,0.93
2022-09-11T16:13:20.947Z,0.95
2022-09-11T16:15:47.481Z,1.10
2022-09-11T16:18:14.051Z,1.10
2022-09-11T16:20:40.572Z,1.00
2022-09-11T16:23:07.788Z,0.60
2022-09-11T16:25:38.820Z,1.02
2022-09-11T16:28:05.356Z,0.95
2022-09-11T16:30:43.249Z,0.93
2022-09-11T16:33:12.187Z,0.80
2022-09-11T16:35:39.389Z,0.88
2022-09-11T16:38:07.520Z,0.80
2022-09-11T16:40:34.977Z,1.25
2022-09-11T16:43:04.973Z,1.05
2022-09-11T16:45:32.101Z,1.10
2022-09-11T16:47:59.737Z,1.10
2022-09-11T16:50:26.646Z,1.10
2022-09-11T16:52:53.134Z,0.75
2022-09-11T16:55:19.854Z,1.25
2022-09-11T16:57:46.349Z,0.80
2022-09-11T17:00:19.039Z,1.38
2022-09-11T17:02:45.553Z,1.30
2022-09-11T17:05:12.108Z,1.20
2022-09-11T17:07:38.732Z,0.98
2022-09-11T17:10:05.543Z,0.80
2022-09-11T17:12:32.047Z,1.00
2022-09-11T17:14:58.566Z,0.75
2022-09-11T17:17:25.143Z,1.08
2022-09-11T17:19:52.443Z,0.90
2022-09-11T17:22:18.981Z,0.90
2022-09-11T17:24:45.498Z,0.80
2022-09-11T17:27:12.042Z,1.00
2022-09-11T17:29:43.780Z,0.95
2022-09-11T17:32:27.358Z,1.00
2022-09-11T17:34:55.031Z,1.25
2022-09-11T17:37:21.604Z,1.10
2022-09-11T17:39:48.186Z,1.10
2022-09-11T17:42:14.832Z,1.05
2022-09-11T17:44:41.552Z,0.82
2022-09-11T17:47:08.198Z,1.02
2022-09-11T17:49:34.757Z,1.52
2022-09-11T17:52:01.356Z,1.38
2022-09-11T17:54:28.046Z,1.90
2022-09-11T17:56:55.141Z,1.27
2022-09-11T17:59:22.222Z,1.52
2022-09-11T18:01:48.826Z,1.13
2022-09-11T18:04:15.479Z,1.38
2022-09-11T18:06:42.155Z,1.80
2022-09-11T18:09:11.704Z,1.40
2022-09-11T18:11:39.131Z,1.63
2022-09-11T18:14:06.026Z,1.30
2022-09-11T18:16:32.704Z,1.65
2022-09-11T18:18:59.225Z,1.58
2022-09-11T18:21:25.797Z,1.50
2022-09-11T18:23:52.300Z,1.45
2022-09-11T18:26:24.554Z,1.60
2022-09-11T18:28:56.789Z,1.30
2022-09-11T18:31:23.545Z,1.52
2022-09-11T18:33:54.131Z,1.60
2022-09-11T18:36:21.302Z,1.70
2022-09-11T18:38:52.095Z,2.72
2022-09-11T18:41:18.982Z,1.80
2022-09-11T18:43:45.499Z,1.80
2022-09-11T18:46:12.128Z,1.60
2022-09-11T18:48:42.494Z,1.42
2022-09-11T18:51:09.324Z,1.70
2022-09-11T18:53:36.071Z,1.85
2022-09-11T18:56:03.609Z,1.80
2022-09-11T18:58:35.159Z,1.90
2022-09-11T19:01:09.614Z,1.85
2022-09-11T19:03:36.201Z,1.92
2022-09-11T19:06:10.218Z,1.42
2022-09-11T19:11:08.741Z,1.65
2022-09-11T19:13:36.456Z,1.90
2022-09-11T19:16:03.066Z,2.22
2022-09-11T19:18:30.543Z,2.15
2022-09-11T19:21:02.258Z,5.05
2022-09-11T19:23:33.746Z,3.53
2022-09-11T19:26:08.661Z,3.03
2022-09-11T19:28:35.425Z,3.17
2022-09-11T19:31:02.998Z,3.10
2022-09-11T19:33:30.737Z,2.58
2022-09-11T19:36:00.358Z,2.40
2022-09-11T19:38:27.301Z,2.75
2022-09-11T19:40:53.818Z,2.35
2022-09-11T19:43:20.339Z,2.70
2022-09-11T19:45:46.826Z,3.30
2022-09-11T19:48:13.342Z,2.75
2022-09-11T19:50:44.459Z,2.13
2022-09-11T19:53:11.217Z,2.55
2022-09-11T19:55:37.759Z,2.15
2022-09-11T19:58:04.258Z,2.45
2022-09-11T20:00:30.783Z,2.55
2022-09-11T20:02:57.343Z,2.38
2022-09-11T20:05:23.858Z,2.05
2022-09-11T20:07:50.357Z,2.63
2022-09-11T20:10:16.946Z,2.40
2022-09-11T20:12:43.426Z,2.10
2022-09-11T20:15:10.235Z,2.22
2022-09-11T20:17:36.718Z,2.33
2022-09-11T20:20:03.343Z,2.17
2022-09-11T20:22:29.854Z,2.40
2022-09-11T20:24:56.374Z,2.38
2022-09-11T20:27:22.848Z,2.40
2022-09-11T20:29:49.332Z,2.78
2022-09-11T20:32:15.816Z,2.30
2022-09-11T20:34:42.338Z,2.00
2022-09-11T20:37:10.282Z,2.00
2022-09-11T20:39:37.188Z,2.30
2022-09-11T20:42:03.887Z,2.15
2022-09-11T20:44:33.747Z,2.08
2022-09-11T20:47:02.928Z,2.05
2022-09-11T20:49:29.497Z,2.20
2022-09-11T20:51:56.090Z,2.70
2022-09-11T20:54:22.638Z,2.75
2022-09-11T20:56:49.162Z,2.15
2022-09-11T20:59:16.190Z,2.30
2022-09-11T21:01:42.745Z,2.30
2022-09-11T21:04:09.942Z,2.10
2022-09-11T21:06:36.464Z,2.10
2022-09-11T21:09:09.024Z,2.78
2022-09-11T21:11:35.857Z,2.20
2022-09-11T21:14:02.477Z,2.40
2022-09-11T21:16:29.261Z,2.33
2022-09-11T21:18:57.905Z,2.67
2022-09-11T21:21:26.269Z,2.60
2022-09-11T21:23:57.854Z,2.13
2022-09-11T21:26:25.292Z,2.05
2022-09-11T21:28:52.229Z,1.92
2022-09-11T21:31:18.838Z,2.20
2022-09-11T21:33:45.480Z,2.05
2022-09-11T21:36:12.054Z,2.00
2022-09-11T21:38:38.720Z,2.58
2022-09-11T21:41:07.590Z,2.47
2022-09-11T21:43:34.740Z,1.92
2022-09-11T21:46:02.159Z,2.10
2022-09-11T21:48:33.669Z,1.83
2022-09-11T21:51:13.807Z,2.10
2022-09-11T21:53:42.185Z,1.70
2022-09-11T21:56:20.777Z,1.67
2022-09-11T21:58:48.530Z,1.83
2022-09-11T22:01:15.151Z,1.95
2022-09-11T22:03:41.911Z,2.10
2022-09-11T22:06:09.922Z,2.35
2022-09-11T22:08:38.474Z,1.75
2022-09-11T22:11:05.178Z,2.92
2022-09-11T22:13:32.050Z,2.10
2022-09-11T22:15:58.690Z,2.60
2022-09-11T22:18:25.265Z,2.20
2022-09-11T22:20:51.776Z,2.20
2022-09-11T22:23:19.554Z,2.20
2022-09-11T22:25:46.441Z,2.03
2022-09-11T22:28:12.990Z,2.20
2022-09-11T22:30:43.657Z,1.92
2022-09-11T22:33:10.314Z,2.00
2022-09-11T22:35:37.115Z,1.63
2022-09-11T22:38:03.840Z,1.83
2022-09-11T22:40:30.374Z,1.83
2022-09-11T22:42:56.906Z,1.75
2022-09-11T22:45:23.436Z,2.67
2022-09-11T22:47:49.934Z,1.90
2022-09-11T22:50:16.670Z,2.05
2022-09-11T22:52:43.215Z,2.35
2022-09-11T22:55:10.037Z,2.67
2022-09-11T22:57:36.856Z,2.25
2022-09-11T23:00:09.482Z,2.20
2022-09-11T23:02:36.808Z,2.25
2022-09-11T23:05:07.369Z,2.20
2022-09-11T23:07:33.917Z,2.20
2022-09-11T23:10:00.418Z,2.17
2022-09-11T23:12:26.953Z,1.83
2022-09-11T23:14:53.473Z,1.73
2022-09-11T23:17:20.017Z,1.92
2022-09-11T23:19:46.521Z,1.90
2022-09-11T23:22:13.035Z,1.83
2022-09-11T23:24:39.557Z,1.60
2022-09-11T23:27:06.047Z,1.75
2022-09-11T23:29:32.554Z,1.70
2022-09-11T23:31:59.061Z,2.05
2022-09-11T23:34:25.630Z,2.30
2022-09-11T23:36:52.170Z,2.30
2022-09-11T23:39:18.665Z,2.47
2022-09-11T23:41:45.157Z,2.60
2022-09-11T23:44:11.788Z,2.63
2022-09-11T23:46:38.365Z,2.40
2022-09-11T23:49:04.852Z,1.90
2022-09-11T23:51:31.348Z,1.80
2022-09-11T23:53:57.882Z,1.70
2022-09-11T23:56:24.419Z,1.83
2022-09-11T23:58:50.919Z,1.80
